sensor_id;sensor_type;location;lat;lon;timestamp;P1;durP1;ratioP1;P2;durP2;ratioP2
53036;SDS011;38924;52.134;4.666;2022-08-21T00:01:57;400.27;;;369.20;;
53036;SDS011;38924;52.134;4.666;2022-08-21T00:04:23;373.45;;;345.40;;
53036;SDS011;38924;52.134;4.666;2022-08-21T00:06:50;384.95;;;354.73;;
53036;SDS011;38924;52.134;4.666;2022-08-21T00:09:19;410.17;;;377.35;;
53036;SDS011;38924;52.134;4.666;2022-08-21T00:11:45;370.65;;;342.77;;
53036;SDS011;38924;52.134;4.666;2022-08-21T00:14:11;412.65;;;380.77;;
53036;SDS011;38924;52.134;4.666;2022-08-21T00:16:37;382.20;;;353.05;;
53036;SDS011;38924;52.134;4.666;2022-08-21T00:19:04;353.13;;;325.63;;
53036;SDS011;38924;52.134;4.666;2022-08-21T00:21:30;372.88;;;344.88;;
53036;SDS011;38924;52.134;4.666;2022-08-21T00:23:57;380.42;;;350.75;;
53036;SDS011;38924;52.134;4.666;2022-08-21T00:26:22;400.05;;;369.45;;
53036;SDS011;38924;52.134;4.666;2022-08-21T00:28:48;348.77;;;322.33;;
53036;SDS011;38924;52.134;4.666;2022-08-21T00:31:14;349.55;;;324.48;;
53036;SDS011;38924;52.134;4.666;2022-08-21T00:33:41;400.90;;;370.58;;
53036;SDS011;38924;52.134;4.666;2022-08-21T00:36:06;367.25;;;340.40;;
53036;SDS011;38924;52.134;4.666;2022-08-21T00:38:32;360.38;;;334.60;;
53036;SDS011;38924;52.134;4.666;2022-08-21T00:40:59;380.88;;;352.30;;
53036;SDS011;38924;52.134;4.666;2022-08-21T00:43:30;357.70;;;329.98;;
53036;SDS011;38924;52.134;4.666;2022-08-21T00:45:56;363.23;;;336.13;;
53036;SDS011;38924;52.134;4.666;2022-08-21T00:48:22;350.40;;;323.98;;
53036;SDS011;38924;52.134;4.666;2022-08-21T00:51:00;310.73;;;287.58;;
53036;SDS011;38924;52.134;4.666;2022-08-21T00:53:29;350.98;;;324.25;;
53036;SDS011;38924;52.134;4.666;2022-08-21T00:55:56;395.75;;;365.75;;
53036;SDS011;38924;52.134;4.666;2022-08-21T00:58:22;326.45;;;302.50;;
53036;SDS011;38924;52.134;4.666;2022-08-21T01:00:48;340.98;;;316.27;;
53036;SDS011;38924;52.134;4.666;2022-08-21T01:03:17;304.45;;;281.98;;
53036;SDS011;38924;52.134;4.666;2022-08-21T01:05:44;328.23;;;304.85;;
53036;SDS011;38924;52.134;4.666;2022-08-21T01:08:10;341.63;;;317.38;;
53036;SDS011;38924;52.134;4.666;2022-08-21T01:10:36;302.50;;;279.58;;
53036;SDS011;38924;52.134;4.666;2022-08-21T01:13:04;307.17;;;285.67;;
53036;SDS011;38924;52.134;4.666;2022-08-21T01:15:37;303.55;;;281.70;;
53036;SDS011;38924;52.134;4.666;2022-08-21T01:18:06;311.92;;;289.48;;
53036;SDS011;38924;52.134;4.666;2022-08-21T01:20:34;316.10;;;292.30;;
53036;SDS011;38924;52.134;4.666;2022-08-21T01:23:03;278.55;;;257.38;;
53036;SDS011;38924;52.134;4.666;2022-08-21T01:25:31;295.95;;;274.65;;
53036;SDS011;38924;52.134;4.666;2022-08-21T01:27:57;292.20;;;271.02;;
53036;SDS011;38924;52.134;4.666;2022-08-21T01:30:28;310.10;;;287.17;;
53036;SDS011;38924;52.134;4.666;2022-08-21T01:32:56;280.40;;;259.88;;
53036;SDS011;38924;52.134;4.666;2022-08-21T01:35:22;273.20;;;252.90;;
53036;SDS011;38924;52.134;4.666;2022-08-21T01:37:48;310.85;;;288.35;;
53036;SDS011;38924;52.134;4.666;2022-08-21T01:40:14;330.77;;;306.45;;
53036;SDS011;38924;52.134;4.666;2022-08-21T01:42:41;270.80;;;251.15;;
53036;SDS011;38924;52.134;4.666;2022-08-21T01:45:07;313.20;;;290.00;;
53036;SDS011;38924;52.134;4.666;2022-08-21T01:47:33;308.33;;;285.35;;
53036;SDS011;38924;52.134;4.666;2022-08-21T01:49:59;298.63;;;277.38;;
53036;SDS011;38924;52.134;4.666;2022-08-21T01:52:24;335.70;;;311.00;;
53036;SDS011;38924;52.134;4.666;2022-08-21T01:54:53;307.05;;;284.35;;
53036;SDS011;38924;52.134;4.666;2022-08-21T01:57:22;312.50;;;289.02;;
53036;SDS011;38924;52.134;4.666;2022-08-21T01:59:48;294.80;;;272.60;;
53036;SDS011;38924;52.134;4.666;2022-08-21T02:02:13;331.42;;;306.63;;
53036;SDS011;38924;52.134;4.666;2022-08-21T02:04:42;326.20;;;302.48;;
53036;SDS011;38924;52.134;4.666;2022-08-21T02:07:08;324.08;;;300.27;;
53036;SDS011;38924;52.134;4.666;2022-08-21T02:09:34;303.42;;;282.88;;
53036;SDS011;38924;52.134;4.666;2022-08-21T02:12:00;274.13;;;254.65;;
53036;SDS011;38924;52.134;4.666;2022-08-21T02:14:26;294.92;;;273.85;;
53036;SDS011;38924;52.134;4.666;2022-08-21T02:16:52;298.05;;;275.95;;
53036;SDS011;38924;52.134;4.666;2022-08-21T02:19:18;281.63;;;261.20;;
53036;SDS011;38924;52.134;4.666;2022-08-21T02:21:44;289.92;;;269.23;;
53036;SDS011;38924;52.134;4.666;2022-08-21T02:24:10;286.75;;;265.27;;
53036;SDS011;38924;52.134;4.666;2022-08-21T02:26:38;289.70;;;268.35;;
53036;SDS011;38924;52.134;4.666;2022-08-21T02:29:04;289.13;;;267.55;;
53036;SDS011;38924;52.134;4.666;2022-08-21T02:31:30;290.55;;;269.90;;
53036;SDS011;38924;52.134;4.666;2022-08-21T02:33:56;319.55;;;296.00;;
53036;SDS011;38924;52.134;4.666;2022-08-21T02:36:22;298.25;;;276.58;;
53036;SDS011;38924;52.134;4.666;2022-08-21T02:38:48;293.50;;;271.70;;
53036;SDS011;38924;52.134;4.666;2022-08-21T02:41:16;271.65;;;252.20;;
53036;SDS011;38924;52.134;4.666;2022-08-21T02:43:42;305.70;;;283.02;;
53036;SDS011;38924;52.134;4.666;2022-08-21T02:46:09;276.08;;;255.95;;
53036;SDS011;38924;52.134;4.666;2022-08-21T02:48:35;297.17;;;276.08;;
53036;SDS011;38924;52.134;4.666;2022-08-21T02:51:05;293.17;;;272.25;;
53036;SDS011;38924;52.134;4.666;2022-08-21T02:53:32;291.38;;;269.83;;
53036;SDS011;38924;52.134;4.666;2022-08-21T02:55:58;286.80;;;265.63;;
53036;SDS011;38924;52.134;4.666;2022-08-21T02:58:31;305.20;;;283.02;;
53036;SDS011;38924;52.134;4.666;2022-08-21T03:00:59;300.05;;;277.63;;
53036;SDS011;38924;52.134;4.666;2022-08-21T03:03:28;278.77;;;258.63;;
53036;SDS011;38924;52.134;4.666;2022-08-21T03:05:59;279.05;;;258.92;;
53036;SDS011;38924;52.134;4.666;2022-08-21T03:08:31;310.90;;;288.75;;
53036;SDS011;38924;52.134;4.666;2022-08-21T03:10:56;275.95;;;256.17;;
53036;SDS011;38924;52.134;4.666;2022-08-21T03:13:22;252.57;;;233.90;;
53036;SDS011;38924;52.134;4.666;2022-08-21T03:15:48;255.48;;;236.68;;
53036;SDS011;38924;52.134;4.666;2022-08-21T03:18:14;262.88;;;244.70;;
53036;SDS011;38924;52.134;4.666;2022-08-21T03:20:41;271.60;;;251.40;;
53036;SDS011;38924;52.134;4.666;2022-08-21T03:23:07;259.02;;;241.00;;
53036;SDS011;38924;52.134;4.666;2022-08-21T03:25:33;234.27;;;216.90;;
53036;SDS011;38924;52.134;4.666;2022-08-21T03:28:02;258.80;;;240.93;;
53036;SDS011;38924;52.134;4.666;2022-08-21T03:30:28;255.55;;;237.93;;
53036;SDS011;38924;52.134;4.666;2022-08-21T03:32:57;235.35;;;219.02;;
53036;SDS011;38924;52.134;4.666;2022-08-21T03:35:26;213.40;;;198.30;;
53036;SDS011;38924;52.134;4.666;2022-08-21T03:37:53;250.77;;;233.20;;
53036;SDS011;38924;52.134;4.666;2022-08-21T03:40:20;230.80;;;214.23;;
53036;SDS011;38924;52.134;4.666;2022-08-21T03:42:47;226.43;;;209.95;;
53036;SDS011;38924;52.134;4.666;2022-08-21T03:45:14;272.95;;;253.20;;
53036;SDS011;38924;52.134;4.666;2022-08-21T03:47:50;249.65;;;232.18;;
53036;SDS011;38924;52.134;4.666;2022-08-21T03:50:16;243.73;;;226.20;;
53036;SDS011;38924;52.134;4.666;2022-08-21T03:52:42;213.50;;;198.93;;
53036;SDS011;38924;52.134;4.666;2022-08-21T03:55:08;245.25;;;227.38;;
53036;SDS011;38924;52.134;4.666;2022-08-21T03:57:34;225.13;;;208.50;;
53036;SDS011;38924;52.134;4.666;2022-08-21T03:59:59;257.77;;;239.43;;
53036;SDS011;38924;52.134;4.666;2022-08-21T04:02:25;238.95;;;222.07;;
53036;SDS011;38924;52.134;4.666;2022-08-21T04:04:51;233.13;;;216.80;;
53036;SDS011;38924;52.134;4.666;2022-08-21T04:07:16;226.43;;;210.43;;
53036;SDS011;38924;52.134;4.666;2022-08-21T04:09:43;215.07;;;199.95;;
53036;SDS011;38924;52.134;4.666;2022-08-21T04:12:09;252.50;;;235.00;;
53036;SDS011;38924;52.134;4.666;2022-08-21T04:14:35;220.48;;;204.48;;
53036;SDS011;38924;52.134;4.666;2022-08-21T04:17:00;208.35;;;193.07;;
53036;SDS011;38924;52.134;4.666;2022-08-21T04:19:26;253.25;;;234.90;;
53036;SDS011;38924;52.134;4.666;2022-08-21T04:21:52;237.75;;;220.57;;
53036;SDS011;38924;52.134;4.666;2022-08-21T04:24:17;242.23;;;225.55;;
53036;SDS011;38924;52.134;4.666;2022-08-21T04:26:44;264.25;;;245.55;;
53036;SDS011;38924;52.134;4.666;2022-08-21T04:29:10;233.25;;;217.25;;
53036;SDS011;38924;52.134;4.666;2022-08-21T04:31:41;206.23;;;191.40;;
53036;SDS011;38924;52.134;4.666;2022-08-21T04:34:08;212.40;;;197.00;;
53036;SDS011;38924;52.134;4.666;2022-08-21T04:36:34;226.30;;;209.68;;
53036;SDS011;38924;52.134;4.666;2022-08-21T04:39:03;242.40;;;225.05;;
53036;SDS011;38924;52.134;4.666;2022-08-21T04:41:29;246.95;;;229.80;;
53036;SDS011;38924;52.134;4.666;2022-08-21T04:43:57;238.40;;;220.98;;
53036;SDS011;38924;52.134;4.666;2022-08-21T04:46:23;221.32;;;205.68;;
53036;SDS011;38924;52.134;4.666;2022-08-21T04:48:49;230.40;;;213.98;;
53036;SDS011;38924;52.134;4.666;2022-08-21T04:51:16;260.77;;;242.23;;
53036;SDS011;38924;52.134;4.666;2022-08-21T04:53:49;233.15;;;216.65;;
53036;SDS011;38924;52.134;4.666;2022-08-21T04:56:22;265.45;;;247.10;;
53036;SDS011;38924;52.134;4.666;2022-08-21T04:58:49;222.52;;;206.48;;
53036;SDS011;38924;52.134;4.666;2022-08-21T05:01:17;257.95;;;239.05;;
53036;SDS011;38924;52.134;4.666;2022-08-21T05:03:43;247.00;;;229.20;;
53036;SDS011;38924;52.134;4.666;2022-08-21T05:06:10;213.27;;;197.23;;
53036;SDS011;38924;52.134;4.666;2022-08-21T05:08:36;214.55;;;199.18;;
53036;SDS011;38924;52.134;4.666;2022-08-21T05:11:02;237.80;;;220.80;;
53036;SDS011;38924;52.134;4.666;2022-08-21T05:13:28;201.60;;;186.98;;
53036;SDS011;38924;52.134;4.666;2022-08-21T05:15:54;216.55;;;200.82;;
53036;SDS011;38924;52.134;4.666;2022-08-21T05:18:19;224.98;;;209.20;;
53036;SDS011;38924;52.134;4.666;2022-08-21T05:20:45;197.52;;;183.77;;
53036;SDS011;38924;52.134;4.666;2022-08-21T05:23:12;206.70;;;192.50;;
53036;SDS011;38924;52.134;4.666;2022-08-21T05:25:39;227.32;;;210.40;;
53036;SDS011;38924;52.134;4.666;2022-08-21T05:28:05;212.65;;;197.45;;
53036;SDS011;38924;52.134;4.666;2022-08-21T05:30:31;212.43;;;196.70;;
53036;SDS011;38924;52.134;4.666;2022-08-21T05:32:57;211.60;;;197.05;;
53036;SDS011;38924;52.134;4.666;2022-08-21T05:35:24;232.52;;;215.50;;
53036;SDS011;38924;52.134;4.666;2022-08-21T05:37:50;209.10;;;193.63;;
53036;SDS011;38924;52.134;4.666;2022-08-21T05:40:15;228.70;;;211.07;;
53036;SDS011;38924;52.134;4.666;2022-08-21T05:42:41;223.30;;;207.45;;
53036;SDS011;38924;52.134;4.666;2022-08-21T05:45:07;251.27;;;232.77;;
53036;SDS011;38924;52.134;4.666;2022-08-21T05:47:33;232.48;;;215.35;;
53036;SDS011;38924;52.134;4.666;2022-08-21T05:49:58;224.20;;;207.73;;
53036;SDS011;38924;52.134;4.666;2022-08-21T05:52:24;227.35;;;211.30;;
53036;SDS011;38924;52.134;4.666;2022-08-21T05:54:50;242.90;;;225.18;;
53036;SDS011;38924;52.134;4.666;2022-08-21T05:57:19;256.42;;;237.90;;
53036;SDS011;38924;52.134;4.666;2022-08-21T05:59:45;250.57;;;231.95;;
53036;SDS011;38924;52.134;4.666;2022-08-21T06:02:10;246.50;;;228.85;;
53036;SDS011;38924;52.134;4.666;2022-08-21T06:04:39;276.67;;;256.75;;
53036;SDS011;38924;52.134;4.666;2022-08-21T06:07:05;246.15;;;228.00;;
53036;SDS011;38924;52.134;4.666;2022-08-21T06:09:34;260.17;;;240.48;;
53036;SDS011;38924;52.134;4.666;2022-08-21T06:12:03;256.95;;;237.95;;
53036;SDS011;38924;52.134;4.666;2022-08-21T06:14:29;266.50;;;247.40;;
53036;SDS011;38924;52.134;4.666;2022-08-21T06:16:54;293.27;;;271.55;;
53036;SDS011;38924;52.134;4.666;2022-08-21T06:19:27;297.95;;;276.58;;
53036;SDS011;38924;52.134;4.666;2022-08-21T06:21:53;288.80;;;268.00;;
53036;SDS011;38924;52.134;4.666;2022-08-21T06:24:19;309.58;;;286.52;;
53036;SDS011;38924;52.134;4.666;2022-08-21T06:26:45;356.50;;;329.75;;
53036;SDS011;38924;52.134;4.666;2022-08-21T06:29:12;321.42;;;298.00;;
53036;SDS011;38924;52.134;4.666;2022-08-21T06:31:41;315.95;;;292.90;;
53036;SDS011;38924;52.134;4.666;2022-08-21T06:34:07;300.98;;;278.73;;
53036;SDS011;38924;52.134;4.666;2022-08-21T06:36:34;373.35;;;344.88;;
53036;SDS011;38924;52.134;4.666;2022-08-21T06:39:00;373.73;;;346.67;;
53036;SDS011;38924;52.134;4.666;2022-08-21T06:41:29;352.27;;;326.38;;
53036;SDS011;38924;52.134;4.666;2022-08-21T06:43:55;359.98;;;332.95;;
53036;SDS011;38924;52.134;4.666;2022-08-21T06:46:22;405.23;;;374.85;;
53036;SDS011;38924;52.134;4.666;2022-08-21T06:48:47;484.98;;;446.48;;
53036;SDS011;38924;52.134;4.666;2022-08-21T06:51:13;540.53;;;496.27;;
53036;SDS011;38924;52.134;4.666;2022-08-21T06:53:40;448.73;;;413.02;;
53036;SDS011;38924;52.134;4.666;2022-08-21T06:56:06;487.38;;;447.73;;
53036;SDS011;38924;52.134;4.666;2022-08-21T06:58:31;519.85;;;476.15;;
53036;SDS011;38924;52.134;4.666;2022-08-21T07:00:57;572.75;;;524.78;;
53036;SDS011;38924;52.134;4.666;2022-08-21T07:03:24;561.85;;;513.90;;
53036;SDS011;38924;52.134;4.666;2022-08-21T07:05:50;598.88;;;548.35;;
53036;SDS011;38924;52.134;4.666;2022-08-21T07:08:16;675.35;;;617.20;;
53036;SDS011;38924;52.134;4.666;2022-08-21T07:10:42;657.55;;;600.30;;
53036;SDS011;38924;52.134;4.666;2022-08-21T07:13:07;597.30;;;545.40;;
53036;SDS011;38924;52.134;4.666;2022-08-21T07:15:35;676.22;;;617.10;;
53036;SDS011;38924;52.134;4.666;2022-08-21T07:18:01;566.10;;;518.40;;
53036;SDS011;38924;52.134;4.666;2022-08-21T07:20:27;611.80;;;558.25;;
53036;SDS011;38924;52.134;4.666;2022-08-21T07:22:53;793.65;;;719.75;;
53036;SDS011;38924;52.134;4.666;2022-08-21T07:25:19;707.55;;;644.65;;
53036;SDS011;38924;52.134;4.666;2022-08-21T07:27:45;738.28;;;669.83;;
53036;SDS011;38924;52.134;4.666;2022-08-21T07:30:11;817.03;;;739.50;;
53036;SDS011;38924;52.134;4.666;2022-08-21T07:32:37;806.20;;;731.95;;
53036;SDS011;38924;52.134;4.666;2022-08-21T07:35:02;808.65;;;734.05;;
53036;SDS011;38924;52.134;4.666;2022-08-21T07:37:30;692.88;;;628.00;;
53036;SDS011;38924;52.134;4.666;2022-08-21T07:39:57;734.22;;;666.60;;
53036;SDS011;38924;52.134;4.666;2022-08-21T07:42:22;779.63;;;705.85;;
53036;SDS011;38924;52.134;4.666;2022-08-21T07:44:48;701.13;;;637.15;;
53036;SDS011;38924;52.134;4.666;2022-08-21T07:47:14;740.15;;;671.50;;
53036;SDS011;38924;52.134;4.666;2022-08-21T07:49:40;822.95;;;741.60;;
53036;SDS011;38924;52.134;4.666;2022-08-21T07:52:08;938.58;;;848.13;;
53036;SDS011;38924;52.134;4.666;2022-08-21T07:54:34;885.53;;;797.28;;
53036;SDS011;38924;52.134;4.666;2022-08-21T07:57:03;927.58;;;836.28;;
53036;SDS011;38924;52.134;4.666;2022-08-21T07:59:31;714.33;;;648.22;;
53036;SDS011;38924;52.134;4.666;2022-08-21T08:01:57;776.78;;;704.97;;
53036;SDS011;38924;52.134;4.666;2022-08-21T08:04:25;799.33;;;722.95;;
53036;SDS011;38924;52.134;4.666;2022-08-21T08:06:51;881.40;;;797.67;;
53036;SDS011;38924;52.134;4.666;2022-08-21T08:09:19;805.42;;;729.45;;
53036;SDS011;38924;52.134;4.666;2022-08-21T08:11:45;850.50;;;769.45;;
53036;SDS011;38924;52.134;4.666;2022-08-21T08:14:11;720.05;;;654.85;;
53036;SDS011;38924;52.134;4.666;2022-08-21T08:16:37;708.58;;;643.22;;
53036;SDS011;38924;52.134;4.666;2022-08-21T08:19:02;685.70;;;623.67;;
53036;SDS011;38924;52.134;4.666;2022-08-21T08:21:28;907.70;;;819.45;;
53036;SDS011;38924;52.134;4.666;2022-08-21T08:23:54;652.47;;;593.33;;
53036;SDS011;38924;52.134;4.666;2022-08-21T08:26:20;782.80;;;710.15;;
53036;SDS011;38924;52.134;4.666;2022-08-21T08:28:45;833.38;;;754.80;;
53036;SDS011;38924;52.134;4.666;2022-08-21T08:31:13;722.30;;;654.45;;
53036;SDS011;38924;52.134;4.666;2022-08-21T08:33:42;849.17;;;767.17;;
53036;SDS011;38924;52.134;4.666;2022-08-21T08:36:15;800.92;;;729.20;;
53036;SDS011;38924;52.134;4.666;2022-08-21T08:38:41;753.08;;;683.08;;
53036;SDS011;38924;52.134;4.666;2022-08-21T08:41:17;749.25;;;678.15;;
53036;SDS011;38924;52.134;4.666;2022-08-21T08:43:48;911.28;;;822.50;;
53036;SDS011;38924;52.134;4.666;2022-08-21T08:46:15;900.50;;;808.65;;
53036;SDS011;38924;52.134;4.666;2022-08-21T08:48:48;833.05;;;751.42;;
53036;SDS011;38924;52.134;4.666;2022-08-21T08:51:22;1038.80;;;931.53;;
53036;SDS011;38924;52.134;4.666;2022-08-21T08:53:57;987.08;;;884.67;;
53036;SDS011;38924;52.134;4.666;2022-08-21T08:56:28;1036.57;;;928.00;;
53036;SDS011;38924;52.134;4.666;2022-08-21T08:58:56;1057.38;;;944.03;;
53036;SDS011;38924;52.134;4.666;2022-08-21T09:01:24;989.78;;;889.95;;
53036;SDS011;38924;52.134;4.666;2022-08-21T09:03:49;950.80;;;855.10;;
53036;SDS011;38924;52.134;4.666;2022-08-21T09:23:50;905.30;;;815.17;;
53036;SDS011;38924;52.134;4.666;2022-08-21T09:26:19;903.45;;;813.42;;
53036;SDS011;38924;52.134;4.666;2022-08-21T09:28:46;970.70;;;872.90;;
53036;SDS011;38924;52.134;4.666;2022-08-21T09:31:30;903.45;;;814.08;;
53036;SDS011;38924;52.134;4.666;2022-08-21T09:33:58;813.65;;;735.95;;
53036;SDS011;38924;52.134;4.666;2022-08-21T09:36:25;843.47;;;757.72;;
53036;SDS011;38924;52.134;4.666;2022-08-21T09:38:57;896.20;;;807.10;;
53036;SDS011;38924;52.134;4.666;2022-08-21T09:41:30;815.35;;;736.13;;
53036;SDS011;38924;52.134;4.666;2022-08-21T09:43:56;796.75;;;721.55;;
53036;SDS011;38924;52.134;4.666;2022-08-21T09:46:23;1040.88;;;929.38;;
53036;SDS011;38924;52.134;4.666;2022-08-21T09:48:50;1052.03;;;942.35;;
53036;SDS011;38924;52.134;4.666;2022-08-21T09:51:18;1032.75;;;923.40;;
53036;SDS011;38924;52.134;4.666;2022-08-21T09:53:51;1039.20;;;933.60;;
53036;SDS011;38924;52.134;4.666;2022-08-21T09:59:15;1035.35;;;935.08;;
53036;SDS011;38924;52.134;4.666;2022-08-21T10:01:42;982.17;;;888.53;;
53036;SDS011;38924;52.134;4.666;2022-08-21T10:04:08;1032.80;;;932.35;;
53036;SDS011;38924;52.134;4.666;2022-08-21T10:06:37;1004.03;;;907.45;;
53036;SDS011;38924;52.134;4.666;2022-08-21T10:09:07;1040.88;;;938.67;;
53036;SDS011;38924;52.134;4.666;2022-08-21T10:11:33;1013.00;;;918.17;;
53036;SDS011;38924;52.134;4.666;2022-08-21T10:16:50;1006.47;;;908.03;;
53036;SDS011;38924;52.134;4.666;2022-08-21T10:27:01;997.35;;;904.00;;
53036;SDS011;38924;52.134;4.666;2022-08-21T10:39:42;1011.15;;;922.83;;
53036;SDS011;38924;52.134;4.666;2022-08-21T10:44:49;996.50;;;907.05;;
53036;SDS011;38924;52.134;4.666;2022-08-21T10:47:22;1035.70;;;939.38;;
53036;SDS011;38924;52.134;4.666;2022-08-21T10:49:53;999.97;;;910.70;;
53036;SDS011;38924;52.134;4.666;2022-08-21T10:55:08;1037.05;;;941.72;;
53036;SDS011;38924;52.134;4.666;2022-08-21T11:00:17;958.80;;;876.35;;
53036;SDS011;38924;52.134;4.666;2022-08-21T11:03:04;1035.35;;;939.60;;
53036;SDS011;38924;52.134;4.666;2022-08-21T11:05:48;1019.50;;;925.17;;
53036;SDS011;38924;52.134;4.666;2022-08-21T11:08:17;930.08;;;850.35;;
53036;SDS011;38924;52.134;4.666;2022-08-21T11:10:46;986.75;;;897.22;;
53036;SDS011;38924;52.134;4.666;2022-08-21T11:13:30;961.97;;;879.15;;
53036;SDS011;38924;52.134;4.666;2022-08-21T11:16:14;937.50;;;854.20;;
53036;SDS011;38924;52.134;4.666;2022-08-21T11:18:43;966.67;;;882.30;;
53036;SDS011;38924;52.134;4.666;2022-08-21T11:23:59;1017.55;;;924.22;;
53036;SDS011;38924;52.134;4.666;2022-08-21T11:29:12;1053.75;;;949.47;;
53036;SDS011;38924;52.134;4.666;2022-08-21T11:31:52;959.55;;;876.28;;
53036;SDS011;38924;52.134;4.666;2022-08-21T11:42:10;1032.70;;;939.08;;
53036;SDS011;38924;52.134;4.666;2022-08-21T11:52:23;1045.68;;;950.83;;
53036;SDS011;38924;52.134;4.666;2022-08-21T11:55:05;1068.35;;;967.42;;
53036;SDS011;38924;52.134;4.666;2022-08-21T11:57:42;1055.20;;;955.35;;
53036;SDS011;38924;52.134;4.666;2022-08-21T12:02:48;1030.75;;;933.97;;
53036;SDS011;38924;52.134;4.666;2022-08-21T12:05:31;1035.05;;;939.03;;
53036;SDS011;38924;52.134;4.666;2022-08-21T12:08:06;1050.22;;;950.45;;
53036;SDS011;38924;52.134;4.666;2022-08-21T12:10:36;1040.45;;;942.92;;
53036;SDS011;38924;52.134;4.666;2022-08-21T12:13:10;1030.63;;;934.13;;
53036;SDS011;38924;52.134;4.666;2022-08-21T12:15:36;1043.45;;;945.47;;
53036;SDS011;38924;52.134;4.666;2022-08-21T12:18:22;1048.95;;;949.22;;
53036;SDS011;38924;52.134;4.666;2022-08-21T12:23:42;1063.75;;;964.50;;
53036;SDS011;38924;52.134;4.666;2022-08-21T12:28:45;1057.60;;;960.30;;
53036;SDS011;38924;52.134;4.666;2022-08-21T12:31:22;1046.82;;;951.95;;
53036;SDS011;38924;52.134;4.666;2022-08-21T12:33:56;1040.93;;;943.28;;
53036;SDS011;38924;52.134;4.666;2022-08-21T12:36:24;1057.10;;;959.72;;
53036;SDS011;38924;52.134;4.666;2022-08-21T12:38:58;1060.60;;;960.20;;
53036;SDS011;38924;52.134;4.666;2022-08-21T12:41:43;1059.57;;;960.13;;
53036;SDS011;38924;52.134;4.666;2022-08-21T12:44:12;1045.30;;;949.08;;
53036;SDS011;38924;52.134;4.666;2022-08-21T12:46:44;1069.93;;;967.63;;
53036;SDS011;38924;52.134;4.666;2022-08-21T12:49:32;1041.68;;;942.30;;
53036;SDS011;38924;52.134;4.666;2022-08-21T12:52:34;1031.72;;;936.20;;
53036;SDS011;38924;52.134;4.666;2022-08-21T12:57:24;1027.85;;;931.92;;
53036;SDS011;38924;52.134;4.666;2022-08-21T12:59:57;1064.68;;;970.92;;
53036;SDS011;38924;52.134;4.666;2022-08-21T13:02:26;1077.93;;;982.35;;
53036;SDS011;38924;52.134;4.666;2022-08-21T13:04:53;1019.63;;;924.90;;
53036;SDS011;38924;52.134;4.666;2022-08-21T13:07:24;1015.13;;;925.13;;
53036;SDS011;38924;52.134;4.666;2022-08-21T13:09:53;1021.13;;;929.15;;
53036;SDS011;38924;52.134;4.666;2022-08-21T13:12:22;1010.47;;;919.95;;
53036;SDS011;38924;52.134;4.666;2022-08-21T13:14:48;1034.13;;;939.08;;
53036;SDS011;38924;52.134;4.666;2022-08-21T13:17:17;1028.43;;;938.22;;
53036;SDS011;38924;52.134;4.666;2022-08-21T13:19:52;1022.88;;;932.05;;
53036;SDS011;38924;52.134;4.666;2022-08-21T13:22:20;1029.13;;;930.83;;
53036;SDS011;38924;52.134;4.666;2022-08-21T13:24:47;1046.18;;;947.92;;
53036;SDS011;38924;52.134;4.666;2022-08-21T13:27:23;1018.38;;;925.38;;
53036;SDS011;38924;52.134;4.666;2022-08-21T13:30:00;1074.10;;;978.63;;
53036;SDS011;38924;52.134;4.666;2022-08-21T13:32:26;1062.10;;;967.00;;
53036;SDS011;38924;52.134;4.666;2022-08-21T13:34:53;1000.83;;;908.50;;
53036;SDS011;38924;52.134;4.666;2022-08-21T13:37:22;1067.97;;;970.35;;
53036;SDS011;38924;52.134;4.666;2022-08-21T13:39:49;1043.03;;;948.60;;
53036;SDS011;38924;52.134;4.666;2022-08-21T13:42:16;1040.50;;;946.42;;
53036;SDS011;38924;52.134;4.666;2022-08-21T13:44:43;1051.43;;;953.30;;
53036;SDS011;38924;52.134;4.666;2022-08-21T13:47:10;1055.28;;;956.33;;
53036;SDS011;38924;52.134;4.666;2022-08-21T13:49:37;1055.80;;;959.15;;
53036;SDS011;38924;52.134;4.666;2022-08-21T13:52:04;1022.92;;;930.85;;
53036;SDS011;38924;52.134;4.666;2022-08-21T13:54:37;1034.07;;;941.60;;
53036;SDS011;38924;52.134;4.666;2022-08-21T13:57:15;1035.03;;;942.15;;
53036;SDS011;38924;52.134;4.666;2022-08-21T13:59:41;1039.38;;;945.08;;
53036;SDS011;38924;52.134;4.666;2022-08-21T14:02:12;1056.60;;;960.63;;
53036;SDS011;38924;52.134;4.666;2022-08-21T14:04:42;1006.42;;;916.55;;
53036;SDS011;38924;52.134;4.666;2022-08-21T14:07:16;1042.13;;;950.13;;
53036;SDS011;38924;52.134;4.666;2022-08-21T14:09:45;989.28;;;901.60;;
53036;SDS011;38924;52.134;4.666;2022-08-21T14:12:16;1035.75;;;942.90;;
53036;SDS011;38924;52.134;4.666;2022-08-21T14:14:42;1061.85;;;967.88;;
53036;SDS011;38924;52.134;4.666;2022-08-21T14:17:16;1013.13;;;920.70;;
53036;SDS011;38924;52.134;4.666;2022-08-21T14:19:51;1058.75;;;963.22;;
53036;SDS011;38924;52.134;4.666;2022-08-21T14:27:31;1070.95;;;973.97;;
53036;SDS011;38924;52.134;4.666;2022-08-21T14:30:13;960.85;;;877.15;;
53036;SDS011;38924;52.134;4.666;2022-08-21T14:32:41;1024.25;;;935.25;;
53036;SDS011;38924;52.134;4.666;2022-08-21T14:35:07;1006.65;;;919.25;;
53036;SDS011;38924;52.134;4.666;2022-08-21T14:37:34;1031.80;;;939.15;;
53036;SDS011;38924;52.134;4.666;2022-08-21T14:39:59;1026.13;;;934.70;;
53036;SDS011;38924;52.134;4.666;2022-08-21T14:42:25;1046.18;;;952.58;;
53036;SDS011;38924;52.134;4.666;2022-08-21T14:44:51;998.40;;;905.88;;
53036;SDS011;38924;52.134;4.666;2022-08-21T14:47:17;1033.90;;;941.80;;
53036;SDS011;38924;52.134;4.666;2022-08-21T14:49:43;1073.00;;;977.42;;
53036;SDS011;38924;52.134;4.666;2022-08-21T14:52:11;1015.45;;;925.35;;
53036;SDS011;38924;52.134;4.666;2022-08-21T14:54:37;1012.60;;;925.53;;
53036;SDS011;38924;52.134;4.666;2022-08-21T14:57:06;971.85;;;888.08;;
53036;SDS011;38924;52.134;4.666;2022-08-21T14:59:32;983.72;;;897.92;;
53036;SDS011;38924;52.134;4.666;2022-08-21T15:01:59;985.63;;;901.75;;
53036;SDS011;38924;52.134;4.666;2022-08-21T15:04:32;993.60;;;906.58;;
53036;SDS011;38924;52.134;4.666;2022-08-21T15:06:58;1077.63;;;980.92;;
53036;SDS011;38924;52.134;4.666;2022-08-21T15:09:25;1067.28;;;973.80;;
53036;SDS011;38924;52.134;4.666;2022-08-21T15:11:55;1038.63;;;948.33;;
53036;SDS011;38924;52.134;4.666;2022-08-21T15:14:25;943.35;;;863.28;;
53036;SDS011;38924;52.134;4.666;2022-08-21T15:16:54;978.28;;;894.33;;
53036;SDS011;38924;52.134;4.666;2022-08-21T15:19:21;1036.00;;;942.40;;
53036;SDS011;38924;52.134;4.666;2022-08-21T15:21:50;982.88;;;896.97;;
53036;SDS011;38924;52.134;4.666;2022-08-21T15:24:15;1026.55;;;937.53;;
53036;SDS011;38924;52.134;4.666;2022-08-21T15:26:41;993.33;;;908.60;;